Time;durP1;ratioP1;P1;durP2;ratioP2;P2;SDS_P1;SDS_P2;PMS_P1;PMS_P2;Temp;Humidity;BMP_temperature;BMP_pressure;BME280_temperature;BME280_humidity;BME280_pressure;Samples;Min_cycle;Max_cycle;Signal;HPM_P1;HPM_P2
2021/04/26 00:02:07;;;;;;;;;;;;;;;5.10;45.13;99410.17;263394;1099;115663;-79
2021/04/26 00:07:15;;;;;;;21.53;10.40;;;;;;;5.05;45.34;99412.09;263552;1104;103169;-74
2021/04/26 00:12:26;;;;;;;26.20;12.38;;;;;;;4.97;45.45;99414.99;263131;1099;116127;-72
2021/04/26 00:17:43;;;;;;;26.78;12.70;;;;;;;4.90;45.13;99413.48;263415;1104;114405;-71
2021/04/26 00:23:01;;;;;;;32.00;13.48;;;;;;;4.84;45.18;99418.94;263226;1100;115367;-75
2021/04/26 00:28:14;;;;;;;;;;;;;;;4.80;45.50;99414.69;263401;1104;115989;-71
2021/04/26 00:33:22;;;;;;;27.90;13.03;;;;;;;4.75;45.71;99421.87;263454;1099;100883;-72
2021/04/26 00:38:28;;;;;;;29.03;14.75;;;;;;;4.72;45.70;99417.58;263087;1104;115096;-71
2021/04/26 00:43:31;;;;;;;;;;;;;;;4.72;45.87;99412.31;263045;1099;115974;-68
2021/04/26 00:48:33;;;;;;;28.63;13.58;;;;;;;4.67;45.80;99411.58;263415;1100;100911;-66
2021/04/26 00:53:39;;;;;;;30.70;14.20;;;;;;;4.63;45.52;99404.69;263419;1099;115845;-70
2021/04/26 00:58:44;;;;;;;29.10;14.50;;;;;;;4.58;45.45;99411.00;262912;1104;115651;-71
2021/04/26 01:03:50;;;;;;;32.53;15.25;;;;;;;4.52;45.81;99417.35;263433;1099;115294;-69
2021/04/26 01:09:06;;;;;;;29.98;14.55;;;;;;;4.46;46.24;99415.76;263423;1104;115145;-68
2021/04/26 01:14:42;;;;;;;22.83;10.48;;;;;;;4.46;46.03;99423.66;263419;1099;116145;-67
2021/04/26 01:19:56;;;;;;;35.57;15.13;;;;;;;4.42;46.52;99413.28;263048;1100;115301;-67
2021/04/26 01:25:07;;;;;;;32.68;15.10;;;;;;;4.39;46.86;99406.33;263478;1099;114870;-67
2021/04/26 01:30:33;;;;;;;35.48;15.38;;;;;;;4.36;46.74;99408.19;263466;1104;116222;-68
2021/04/26 01:35:58;;;;;;;36.63;15.33;;;;;;;4.29;46.78;99399.61;263338;1099;116398;-69
2021/04/26 01:41:10;;;;;;;32.78;15.28;;;;;;;4.24;47.10;99394.46;263383;1104;114719;-67
2021/04/26 01:46:16;;;;;;;28.53;14.65;;;;;;;4.24;46.95;99396.24;263252;1099;115462;-68
2021/04/26 01:51:20;;;;;;;31.55;14.68;;;;;;;4.26;47.02;99392.66;263305;1103;115019;-68
2021/04/26 01:56:26;;;;;;;28.45;14.23;;;;;;;4.27;47.20;99385.61;263012;1100;114835;-69
2021/04/26 02:01:33;;;;;;;33.38;14.55;;;;;;;4.27;47.38;99381.20;263402;1104;115242;-70
2021/04/26 02:06:40;;;;;;;31.58;14.38;;;;;;;4.29;47.43;99377.68;263454;1099;115553;-72
2021/04/26 02:12:04;;;;;;;30.13;13.90;;;;;;;4.25;47.33;99372.50;263391;1103;114893;-70
2021/04/26 02:17:14;;;;;;;32.78;13.93;;;;;;;4.22;47.45;99366.47;263398;1100;115352;-69
2021/04/26 02:22:17;;;;;;;29.00;13.80;;;;;;;4.22;47.65;99367.33;263430;1104;114852;-70
2021/04/26 02:27:30;;;;;;;27.65;14.60;;;;;;;4.22;48.13;99369.95;263200;1100;114821;-68
2021/04/26 02:32:49;;;;;;;28.00;14.05;;;;;;;4.18;48.22;99370.97;263214;1104;115529;-67
2021/04/26 02:38:26;;;;;;;34.98;15.35;;;;;;;4.14;48.00;99358.78;263190;1100;115510;-70
2021/04/26 02:43:31;;;;;;;;;;;;;;;4.10;48.02;99358.94;263470;1099;115801;-68
2021/04/26 02:48:37;;;;;;;30.85;14.73;;;;;;;4.07;48.41;99353.75;263531;1104;102881;-67
2021/04/26 02:53:43;;;;;;;34.88;16.68;;;;;;;4.04;48.77;99357.34;263370;1099;114645;-67
2021/04/26 02:58:53;;;;;;;38.00;16.05;;;;;;;4.02;48.63;99360.03;263458;1104;115109;-67
2021/04/26 03:04:00;;;;;;;39.83;17.38;;;;;;;4.00;48.78;99351.30;263367;1099;115543;-66
2021/04/26 03:09:08;;;;;;;40.68;17.83;;;;;;;3.89;48.75;99363.94;263458;1101;115364;-66
2021/04/26 03:14:12;;;;;;;39.28;18.28;;;;;;;3.86;49.01;99363.16;263424;1099;115000;-66
2021/04/26 03:19:18;;;;;;;41.53;18.50;;;;;;;3.79;49.16;99367.75;263430;1104;114851;-67
2021/04/26 03:24:24;;;;;;;43.03;18.75;;;;;;;3.75;49.40;99371.38;263029;1099;115327;-68
2021/04/26 03:29:52;;;;;;;44.55;20.93;;;;;;;3.73;49.52;99365.28;263458;1104;114897;-66
2021/04/26 03:34:58;;;;;;;48.33;22.43;;;;;;;3.74;49.74;99367.03;263412;1099;115746;-66
2021/04/26 03:40:06;;;;;;;47.13;22.83;;;;;;;3.75;49.83;99376.65;263235;1100;117093;-69
2021/04/26 03:45:16;;;;;;;50.98;26.03;;;;;;;3.75;49.84;99374.02;263386;1104;114903;-68
2021/04/26 03:50:44;;;;;;;58.75;28.55;;;;;;;3.75;49.86;99377.50;263432;1104;115793;-67
2021/04/26 03:56:08;;;;;;;66.13;28.85;;;;;;;3.71;50.08;99380.28;263412;1099;115664;-69
2021/04/26 04:01:17;;;;;;;66.73;29.15;;;;;;;3.74;50.29;99375.79;263350;1104;115021;-68
2021/04/26 04:06:38;;;;;;;;;;;;;;;;;;;;;
2021/04/26 04:12:12;;;;;;;65.55;29.60;;;;;;;3.82;50.14;99387.86;263493;1104;114941;-67
2021/04/26 04:17:41;;;;;;;60.43;28.40;;;;;;;3.80;50.47;99385.25;263373;1099;116286;-67
2021/04/26 04:23:03;;;;;;;64.23;31.15;;;;;;;3.81;50.53;99401.94;263452;1104;114692;-66
2021/04/26 04:28:08;;;;;;;65.43;31.03;;;;;;;3.73;50.42;99405.63;263374;1099;114870;-65
2021/04/26 04:33:14;;;;;;;63.70;30.07;;;;;;;3.72;51.02;99408.31;263457;1104;115928;-66
2021/04/26 04:38:36;;;;;;;71.50;31.33;;;;;;;3.79;50.73;99415.13;263422;1099;114703;-64
2021/04/26 04:44:11;;;;;;;;;;;;;;;3.89;50.78;99411.33;262663;1105;115556;-64
2021/04/26 04:49:14;;;;;;;63.23;29.60;;;;;;;3.93;50.77;99406.83;263169;1099;101747;-65
2021/04/26 04:54:18;;;;;;;68.23;33.38;;;;;;;3.94;51.34;99419.97;263357;1104;115185;-65
2021/04/26 04:59:27;;;;;;;73.68;30.75;;;;;;;4.05;50.86;99408.26;263288;1099;116164;-65
2021/04/26 05:05:02;;;;;;;67.85;29.58;;;;;;;4.12;50.98;99412.44;262402;1104;115742;-66
2021/04/26 05:10:23;;;;;;;65.00;30.48;;;;;;;4.19;51.00;99413.97;262496;1100;115494;-66
2021/04/26 05:15:56;;;;;;;61.53;29.48;;;;;;;4.25;50.85;99419.06;262412;1104;115253;-65
2021/04/26 05:20:59;;;;;;;72.87;31.17;;;;;;;4.33;50.88;99417.05;262996;1097;115123;-65
2021/04/26 05:26:02;;;;;;;62.05;30.88;;;;;;;4.55;51.24;99422.50;262709;1105;115984;-69
2021/04/26 05:31:05;;;;;;;68.08;30.43;;;;;;;4.68;50.89;99413.30;263342;1099;114905;-67
2021/04/26 05:36:09;;;;;;;61.23;28.68;;;;;;;4.76;50.48;99399.89;262931;1105;115717;-65
2021/04/26 05:41:23;;;;;;;67.70;29.23;;;;;;;4.82;50.74;99411.98;263124;1102;116366;-65
2021/04/26 05:46:27;;;;;;;66.53;28.88;;;;;;;4.88;50.09;99414.43;263269;1104;115000;-65
2021/04/26 05:51:29;;;;;;;61.63;28.03;;;;;;;4.89;50.44;99411.77;263477;1099;115773;-67
2021/04/26 05:56:32;;;;;;;56.87;27.13;;;;;;;4.98;50.39;99411.43;263430;1104;115627;-66
2021/04/26 06:01:35;;;;;;;62.70;29.53;;;;;;;5.13;50.65;99412.72;263304;1100;116120;-65
2021/04/26 06:06:38;;;;;;;50.25;24.55;;;;;;;5.20;50.29;99410.73;263465;1104;114830;-65
2021/04/26 06:11:41;;;;;;;49.00;23.73;;;;;;;5.26;50.19;99410.50;263453;1099;115851;-65
2021/04/26 06:16:44;;;;;;;52.78;24.13;;;;;;;5.38;49.75;99414.50;263452;1103;114814;-64
2021/04/26 06:21:47;;;;;;;57.10;26.50;;;;;;;5.50;49.83;99407.92;263364;1099;114846;-66
2021/04/26 06:26:49;;;;;;;48.48;21.98;;;;;;;5.57;49.20;99405.03;263440;1104;115686;-66
2021/04/26 06:31:52;;;;;;;48.73;21.38;;;;;;;5.66;49.83;99399.39;263429;1099;115018;-65
2021/04/26 06:36:55;;;;;;;48.33;21.38;;;;;;;5.76;48.98;99394.64;263468;1104;115403;-66
2021/04/26 06:42:00;;;;;;;43.98;20.13;;;;;;;5.89;49.27;99400.34;263437;1099;115971;-66
2021/04/26 06:47:05;;;;;;;34.40;16.38;;;;;;;6.03;48.92;99406.00;263462;1104;114836;-67
2021/04/26 06:52:08;;;;;;;39.65;16.25;;;;;;;6.19;47.94;99395.72;263436;1099;116064;-64
2021/04/26 06:57:11;;;;;;;34.00;14.08;;;;;;;6.37;48.02;99389.70;263312;1104;117199;-64
2021/04/26 07:02:13;;;;;;;26.60;11.83;;;;;;;6.54;47.45;99378.47;263444;1099;114679;-67
2021/04/26 07:07:24;;;;;;;20.50;9.68;;;;;;;6.64;47.18;99379.81;263338;1104;115907;-69
2021/04/26 07:12:29;;;;;;;22.43;9.97;;;;;;;6.73;46.40;99383.88;263307;1099;115052;-68
2021/04/26 07:17:34;;;;;;;19.95;8.35;;;;;;;6.86;46.33;99373.64;263119;1104;114671;-66
2021/04/26 07:22:38;;;;;;;15.28;6.45;;;;;;;6.94;45.82;99360.97;263401;1099;115768;-67
2021/04/26 07:27:41;;;;;;;12.55;6.63;;;;;;;7.12;44.93;99364.61;263467;1104;115325;-66
2021/04/26 07:32:45;;;;;;;14.08;5.80;;;;;;;7.32;44.72;99376.99;263451;1099;114750;-67
2021/04/26 07:37:55;;;;;;;8.83;4.23;;;;;;;7.45;44.19;99387.92;263072;1104;115666;-67
2021/04/26 07:42:58;;;;;;;7.63;3.23;;;;;;;7.49;43.48;99381.55;263079;1099;114948;-67
2021/04/26 07:48:01;;;;;;;12.28;3.08;;;;;;;7.52;42.43;99371.69;263493;1104;114540;-67
2021/04/26 07:53:06;;;;;;;8.58;3.08;;;;;;;7.64;42.42;99378.21;263395;1099;115567;-67
2021/04/26 07:58:14;;;;;;;9.75;3.63;;;;;;;7.76;42.55;99367.08;263428;1104;114583;-67
2021/04/26 08:03:21;;;;;;;10.73;3.63;;;;;;;7.84;41.65;99364.08;263411;1099;114496;-68
2021/04/26 08:09:00;;;;;;;8.28;3.18;;;;;;;7.83;41.33;99357.06;263358;1104;115230;-68
2021/04/26 08:14:29;;;;;;;9.30;3.10;;;;;;;7.85;41.53;99370.26;263118;1099;114442;-67
2021/04/26 08:19:37;;;;;;;9.18;3.08;;;;;;;7.81;41.29;99372.16;263434;1104;114521;-66
2021/04/26 08:24:43;;;;;;;8.48;2.78;;;;;;;7.88;41.15;99378.92;263420;1099;115478;-65
2021/04/26 08:29:45;;;;;;;5.33;2.90;;;;;;;7.90;40.98;99373.55;263423;1104;114395;-64
2021/04/26 08:34:49;;;;;;;6.88;3.00;;;;;;;7.92;40.57;99374.34;263381;1099;114629;-65
2021/04/26 08:39:52;;;;;;;5.43;2.60;;;;;;;7.89;39.70;99367.39;263335;1104;116385;-65
2021/04/26 08:44:55;;;;;;;5.65;2.23;;;;;;;7.88;40.28;99375.39;263461;1099;114609;-66
2021/04/26 08:49:59;;;;;;;6.65;2.30;;;;;;;7.95;40.23;99353.86;263435;1104;114766;-65
2021/04/26 08:55:03;;;;;;;5.70;2.30;;;;;;;7.97;39.39;99361.73;262911;1100;115009;-65
2021/04/26 09:00:07;;;;;;;5.15;2.30;;;;;;;8.05;39.04;99370.20;263460;1104;114404;-64
2021/04/26 09:05:24;;;;;;;6.70;2.28;;;;;;;8.16;39.72;99359.95;263406;1100;115282;-65
2021/04/26 09:10:45;;;;;;;6.68;2.60;;;;;;;8.32;39.34;99362.71;263460;1104;116996;-65
2021/04/26 09:16:06;;;;;;;7.30;2.33;;;;;;;8.36;39.36;99355.50;263423;1099;114761;-65
2021/04/26 09:21:31;;;;;;;5.85;2.05;;;;;;;8.44;39.29;99366.63;263433;1103;114531;-65
2021/04/26 09:27:12;;;;;;;3.85;2.20;;;;;;;8.51;38.62;99357.43;263421;1100;114889;-66
2021/04/26 09:32:19;;;;;;;8.85;2.08;;;;;;;8.53;38.64;99344.97;263490;1103;114659;-65
2021/04/26 09:37:23;;;;;;;7.08;1.95;;;;;;;8.58;37.98;99361.50;263415;1104;114363;-65
2021/04/26 09:42:56;;;;;;;6.40;2.15;;;;;;;8.59;38.12;99347.30;263445;1104;114341;-66
2021/04/26 09:48:17;;;;;;;4.03;1.68;;;;;;;8.63;38.21;99340.08;263406;1100;114488;-66
2021/04/26 09:53:20;;;;;;;3.78;1.93;;;;;;;8.78;37.34;99341.09;263440;1099;114545;-65
2021/04/26 09:58:24;;;;;;;5.90;2.28;;;;;;;8.88;37.35;99352.97;263322;1102;115429;-67
2021/04/26 10:03:31;;;;;;;6.30;2.28;;;;;;;8.85;37.07;99351.32;263485;1099;114459;-65
2021/04/26 10:08:36;;;;;;;5.05;2.38;;;;;;;9.11;37.51;99342.05;263267;1104;114199;-65
2021/04/26 10:13:40;;;;;;;4.48;2.20;;;;;;;9.14;37.27;99336.59;263374;1099;114297;-65
2021/04/26 10:18:44;;;;;;;4.00;2.08;;;;;;;9.14;36.77;99333.94;263454;1104;114522;-64
2021/04/26 10:23:57;;;;;;;4.20;1.65;;;;;;;9.02;36.36;99328.39;263462;1099;115343;-68
2021/04/26 10:29:14;;;;;;;4.63;1.95;;;;;;;8.94;36.91;99334.09;263443;1104;114166;-65
2021/04/26 10:34:17;;;;;;;3.03;1.63;;;;;;;9.06;37.08;99325.48;263472;1104;117902;-65
2021/04/26 10:39:22;;;;;;;6.80;2.05;;;;;;;9.46;36.35;99318.96;263459;1104;114688;-65
2021/04/26 10:44:40;;;;;;;9.38;2.30;;;;;;;9.64;35.93;99310.94;263411;1099;114563;-64
2021/04/26 10:49:45;;;;;;;5.63;2.00;;;;;;;9.78;35.67;99302.22;263413;1103;115380;-66
2021/04/26 10:54:49;;;;;;;3.15;1.60;;;;;;;9.99;35.77;99301.06;263339;1099;115238;-64
2021/04/26 10:59:52;;;;;;;10.43;2.38;;;;;;;10.15;35.76;99293.06;263365;1104;114625;-65
2021/04/26 11:05:34;;;;;;;7.53;2.13;;;;;;;10.34;35.41;99290.27;263416;1104;116128;-65
2021/04/26 11:10:50;;;;;;;3.75;1.93;;;;;;;10.52;35.48;99283.03;263452;1104;115395;-65
2021/04/26 11:16:17;;;;;;;4.13;2.00;;;;;;;10.51;34.88;99287.50;263432;1099;115414;-65
2021/04/26 11:21:56;;;;;;;6.38;1.93;;;;;;;10.38;35.10;99286.48;263388;1104;114665;-65
2021/04/26 11:27:08;;;;;;;4.58;1.70;;;;;;;10.34;35.16;99271.65;262800;1099;115604;-64
2021/04/26 11:32:16;;;;;;;10.47;2.50;;;;;;;10.22;35.04;99275.81;263445;1104;115343;-65
2021/04/26 11:37:27;;;;;;;6.03;2.40;;;;;;;10.09;34.50;99270.36;263382;1099;115543;-64
2021/04/26 11:42:32;;;;;;;4.73;1.95;;;;;;;10.06;34.27;99267.87;263487;1104;114656;-64
2021/04/26 11:47:35;;;;;;;4.95;2.10;;;;;;;9.97;34.10;99251.56;263400;1099;115091;-64
2021/04/26 11:52:38;;;;;;;3.63;2.10;;;;;;;9.93;34.41;99256.20;263455;1104;115061;-64
2021/04/26 11:57:47;;;;;;;5.65;2.20;;;;;;;10.50;34.75;99239.70;263370;1099;117205;-65
2021/04/26 12:02:53;;;;;;;6.65;2.33;;;;;;;10.90;34.16;99232.84;263490;1104;114572;-64
2021/04/26 12:07:57;;;;;;;4.75;2.10;;;;;;;11.02;33.75;99233.92;263440;1099;115459;-64
2021/04/26 12:13:05;;;;;;;5.75;2.40;;;;;;;10.85;33.73;99230.47;263497;1104;115629;-66
2021/04/26 12:18:08;;;;;;;7.88;2.65;;;;;;;10.82;33.53;99224.47;263404;1099;114928;-64
2021/04/26 12:23:29;;;;;;;6.23;2.50;;;;;;;10.83;33.11;99228.84;263192;1104;114802;-64
2021/04/26 12:28:45;;;;;;;5.20;2.13;;;;;;;10.67;33.47;99204.96;263441;1098;114900;-65
2021/04/26 12:33:48;;;;;;;9.95;2.60;;;;;;;10.50;33.07;99203.30;263419;1104;115629;-64
2021/04/26 12:38:53;;;;;;;7.38;2.80;;;;;;;10.48;33.19;99199.02;263453;1099;115700;-64
2021/04/26 12:44:23;;;;;;;5.90;2.40;;;;;;;10.44;33.32;99201.00;263397;1104;114937;-65
2021/04/26 12:49:26;;;;;;;4.68;2.38;;;;;;;10.43;33.45;99183.33;263143;1100;115761;-64
2021/04/26 12:54:29;;;;;;;5.35;2.73;;;;;;;10.71;33.76;99176.36;263453;1101;115021;-64
2021/04/26 12:59:47;;;;;;;6.35;2.43;;;;;;;11.19;32.89;99163.64;263444;1099;115473;-70
2021/04/26 13:04:51;;;;;;;8.20;2.33;;;;;;;11.31;33.15;99169.06;263494;1104;115075;-64
2021/04/26 13:10:10;;;;;;;3.48;2.10;;;;;;;11.41;31.86;99150.66;263110;1099;115021;-64
2021/04/26 13:15:28;;;;;;;7.95;2.43;;;;;;;11.90;32.21;99139.53;263455;1103;114783;-64
2021/04/26 13:20:31;;;;;;;5.35;2.40;;;;;;;12.42;32.30;99137.84;263334;1098;114725;-64
2021/04/26 13:25:34;;;;;;;6.80;2.15;;;;;;;12.94;32.42;99127.11;263400;1103;114684;-64
2021/04/26 13:30:37;;;;;;;6.00;2.25;;;;;;;13.47;31.97;99117.08;263501;1099;114705;-64
2021/04/26 13:35:39;;;;;;;6.48;2.25;;;;;;;13.87;31.77;99110.63;263486;1102;114728;-64
2021/04/26 13:40:42;;;;;;;6.35;2.30;;;;;;;14.39;32.85;99096.82;263420;1099;114648;-64
2021/04/26 13:45:46;;;;;;;3.73;2.15;;;;;;;14.87;31.67;99101.20;263473;1104;115866;-64
2021/04/26 13:50:49;;;;;;;4.53;2.25;;;;;;;15.07;30.66;99086.22;263455;1099;114854;-64
2021/04/26 13:55:53;;;;;;;5.68;2.33;;;;;;;15.20;30.38;99081.58;263396;1104;114921;-64
2021/04/26 14:00:56;;;;;;;4.08;2.25;;;;;;;14.56;29.06;99083.99;263431;1098;114678;-64
2021/04/26 14:05:59;;;;;;;5.30;2.60;;;;;;;13.99;29.19;99082.09;263450;1104;114645;-63
2021/04/26 14:11:03;;;;;;;4.05;2.18;;;;;;;14.32;30.26;99066.14;263489;1098;114940;-65
2021/04/26 14:16:06;;;;;;;5.65;2.43;;;;;;;14.71;30.52;99061.38;263400;1103;114644;-65
2021/04/26 14:21:09;;;;;;;4.70;1.90;;;;;;;14.89;30.46;99054.55;263408;1099;114768;-65
2021/04/26 14:26:12;;;;;;;4.85;2.23;;;;;;;14.99;29.28;99056.51;263370;1104;116201;-65
2021/04/26 14:31:15;;;;;;;6.25;2.38;;;;;;;14.88;29.73;99050.18;263384;1099;115639;-64
2021/04/26 14:36:18;;;;;;;5.13;2.50;;;;;;;14.89;30.08;99041.16;263344;1104;114863;-65
2021/04/26 14:41:21;;;;;;;6.83;2.33;;;;;;;14.56;28.82;99038.46;263293;1099;114927;-62
2021/04/26 14:46:24;;;;;;;8.65;2.50;;;;;;;14.06;28.79;99041.39;263416;1103;115112;-63
2021/04/26 14:51:27;;;;;;;6.83;2.40;;;;;;;13.63;28.02;99035.75;263437;1099;115376;-64
2021/04/26 14:56:30;;;;;;;6.03;2.58;;;;;;;13.24;28.51;99037.70;263412;1104;115595;-67
2021/04/26 15:01:34;;;;;;;7.60;2.40;;;;;;;12.85;28.66;99039.59;263475;1099;115358;-64
2021/04/26 15:06:37;;;;;;;5.18;2.40;;;;;;;12.54;28.88;99027.58;263314;1104;114674;-65
2021/04/26 15:11:40;;;;;;;3.80;2.10;;;;;;;12.39;29.56;99024.14;263176;1097;115312;-65
2021/04/26 15:16:44;;;;;;;8.23;2.43;;;;;;;12.27;29.00;99025.02;263474;1103;115169;-65
2021/04/26 15:21:49;;;;;;;7.15;2.38;;;;;;;12.08;28.59;99026.26;263320;1099;114749;-65
2021/04/26 15:26:52;;;;;;;7.73;2.53;;;;;;;12.00;29.46;99017.09;263429;1104;114860;-65
2021/04/26 15:31:55;;;;;;;8.28;2.60;;;;;;;11.94;29.43;99018.35;263443;1099;114810;-65
2021/04/26 15:36:58;;;;;;;4.43;2.30;;;;;;;12.03;29.32;99015.06;263425;1104;115426;-65
2021/04/26 15:42:03;;;;;;;6.98;2.50;;;;;;;12.12;28.90;99007.38;263422;1101;115109;-65
2021/04/26 15:47:07;;;;;;;8.40;2.43;;;;;;;12.30;29.83;98996.30;263321;1104;114702;-64
2021/04/26 15:52:10;;;;;;;31.53;19.28;;;;;;;13.44;32.35;98990.80;263390;1098;114950;-65
2021/04/26 15:57:16;;;;;;;23.18;13.48;;;;;;;14.36;31.18;98978.41;263395;1104;115205;-66
2021/04/26 16:02:21;;;;;;;6.08;3.70;;;;;;;14.76;30.22;98975.28;263398;1099;115682;-66
2021/04/26 16:07:25;;;;;;;8.33;4.50;;;;;;;15.13;29.91;98973.99;263395;1103;114717;-65
2021/04/26 16:12:28;;;;;;;9.15;5.18;;;;;;;15.52;30.16;98978.86;263403;1097;115056;-65
2021/04/26 16:17:36;;;;;;;6.48;3.88;;;;;;;15.89;29.79;98967.75;263432;1103;114775;-66
2021/04/26 16:22:44;;;;;;;9.53;6.78;;;;;;;16.09;29.73;98978.48;263439;1099;115055;-65
2021/04/26 16:27:49;;;;;;;9.95;5.25;;;;;;;16.16;29.76;98968.06;263470;1103;115324;-65
2021/04/26 16:32:53;;;;;;;12.35;6.43;;;;;;;16.08;29.64;98967.89;263499;1098;114900;-66
2021/04/26 16:37:59;;;;;;;11.83;7.40;;;;;;;16.28;29.95;98963.48;263416;1104;115109;-65
2021/04/26 16:43:01;;;;;;;4.58;3.20;;;;;;;16.08;29.19;98963.37;263419;1099;114938;-66
2021/04/26 16:48:05;;;;;;;6.95;3.40;;;;;;;15.81;29.04;98963.89;263375;1104;115465;-66
2021/04/26 16:53:08;;;;;;;6.40;3.25;;;;;;;15.65;29.46;98963.45;262807;1100;115648;-66
2021/04/26 16:58:12;;;;;;;6.75;3.30;;;;;;;15.48;29.37;98964.86;263184;1104;114824;-66
2021/04/26 17:03:21;;;;;;;6.68;3.20;;;;;;;14.98;28.91;98961.86;263359;1099;115449;-65
2021/04/26 17:08:23;;;;;;;7.25;3.10;;;;;;;14.01;28.52;98965.95;263307;1104;114752;-65
2021/04/26 17:13:26;;;;;;;7.10;3.00;;;;;;;13.20;28.85;98974.73;263364;1099;114762;-65
2021/04/26 17:18:32;;;;;;;8.25;3.30;;;;;;;12.51;29.26;98980.59;263455;1101;115244;-66
2021/04/26 17:23:38;;;;;;;6.55;3.23;;;;;;;12.00;29.76;98985.09;263448;1099;114818;-66
2021/04/26 17:28:41;;;;;;;6.55;2.90;;;;;;;11.53;30.36;98978.46;263227;1104;114789;-65
2021/04/26 17:33:44;;;;;;;6.73;3.40;;;;;;;11.15;30.55;98981.00;263339;1098;114954;-64
2021/04/26 17:38:50;;;;;;;13.08;4.28;;;;;;;10.81;31.25;98981.37;263346;1103;114753;-64
2021/04/26 17:43:54;;;;;;;10.37;5.17;;;;;;;10.57;31.37;98989.09;263475;1099;114782;-64
2021/04/26 17:48:57;;;;;;;9.88;4.95;;;;;;;10.35;31.60;98988.72;263391;1104;115295;-65
2021/04/26 17:54:01;;;;;;;11.63;5.83;;;;;;;10.14;31.92;98985.55;263295;1103;114774;-64
2021/04/26 17:59:03;;;;;;;15.10;6.40;;;;;;;9.95;32.32;98996.42;263442;1101;114788;-65
2021/04/26 18:04:07;;;;;;;15.78;6.35;;;;;;;9.78;32.68;98999.23;263419;1104;114811;-64
2021/04/26 18:09:10;;;;;;;16.55;6.35;;;;;;;9.62;32.59;98996.66;263316;1099;114748;-66
2021/04/26 18:14:12;;;;;;;12.80;5.80;;;;;;;9.46;33.16;99002.00;262581;1104;114597;-64
2021/04/26 18:19:16;;;;;;;11.75;6.33;;;;;;;9.33;33.38;99008.95;263354;1099;114647;-64
2021/04/26 18:24:19;;;;;;;12.83;6.05;;;;;;;9.20;33.21;99022.95;263110;1103;114798;-65
2021/04/26 18:29:25;;;;;;;14.55;6.58;;;;;;;9.09;33.43;99025.34;263435;1099;114771;-68
2021/04/26 18:34:37;;;;;;;17.30;6.55;;;;;;;8.96;33.41;99032.27;263406;1104;115092;-66
2021/04/26 18:39:40;;;;;;;18.13;8.48;;;;;;;8.86;33.87;99036.38;263415;1099;114715;-71
2021/04/26 18:44:44;;;;;;;19.53;8.48;;;;;;;8.74;34.19;99038.77;263446;1104;115240;-72
2021/04/26 18:49:54;;;;;;;17.88;9.68;;;;;;;8.61;34.88;99042.17;263407;1100;114680;-72
2021/04/26 18:55:00;;;;;;;24.00;10.55;;;;;;;8.50;34.65;99048.91;263314;1104;114777;-72
2021/04/26 19:00:34;;;;;;;23.15;11.90;;;;;;;8.41;34.63;99053.84;263410;1101;115193;-73
2021/04/26 19:05:40;;;;;;;25.45;12.10;;;;;;;8.32;35.69;99051.63;263465;1103;114859;-73
2021/04/26 19:10:49;;;;;;;21.77;11.43;;;;;;;8.16;35.87;99052.45;263426;1099;114860;-72
2021/04/26 19:16:01;;;;;;;23.10;11.10;;;;;;;8.03;36.61;99061.97;263270;1104;114666;-71
2021/04/26 19:21:05;;;;;;;22.25;10.48;;;;;;;7.93;36.22;99064.22;263430;1100;114860;-71
2021/04/26 19:26:11;;;;;;;21.98;10.43;;;;;;;7.88;37.09;99062.73;263489;1103;115366;-70
2021/04/26 19:31:23;;;;;;;24.80;11.25;;;;;;;7.81;36.45;99063.06;263243;1102;117016;-70
2021/04/26 19:36:26;;;;;;;20.45;10.58;;;;;;;7.79;37.30;99058.77;263408;1103;114671;-73
2021/04/26 19:41:34;;;;;;;25.25;10.53;;;;;;;7.73;37.04;99057.28;263412;1102;115125;-71
2021/04/26 19:46:37;;;;;;;22.55;10.18;;;;;;;7.67;37.87;99067.32;263382;1104;114664;-71
2021/04/26 19:51:41;;;;;;;23.15;10.65;;;;;;;7.66;37.89;99068.27;263429;1099;115450;-70
2021/04/26 19:56:44;;;;;;;22.43;11.00;;;;;;;7.66;37.71;99068.27;263314;1104;115148;-66
2021/04/26 20:01:47;;;;;;;23.43;11.00;;;;;;;7.63;37.83;99069.27;263455;1099;114788;-66
2021/04/26 20:06:50;;;;;;;25.38;11.63;;;;;;;7.63;37.06;99066.62;263486;1103;115165;-65
2021/04/26 20:11:53;;;;;;;20.13;10.98;;;;;;;7.61;37.98;99055.27;263319;1100;114802;-67
2021/04/26 20:16:57;;;;;;;27.45;11.03;;;;;;;7.58;37.48;99052.77;263483;1103;114857;-66
2021/04/26 20:22:00;;;;;;;25.45;11.48;;;;;;;7.54;37.78;99056.47;263447;1099;114997;-69
2021/04/26 20:27:04;;;;;;;26.80;11.03;;;;;;;7.52;38.96;99061.00;263445;1103;115108;-68
2021/04/26 20:32:10;;;;;;;23.13;10.88;;;;;;;7.49;38.27;99051.41;263162;1102;115309;-67
2021/04/26 20:37:14;;;;;;;23.95;11.48;;;;;;;7.46;37.76;99050.70;263319;1103;115441;-68
2021/04/26 20:42:22;;;;;;;24.98;11.93;;;;;;;7.44;39.05;99047.27;263340;1100;115072;-68
2021/04/26 20:47:25;;;;;;;26.28;12.05;;;;;;;7.42;39.16;99047.35;263476;1102;114932;-67
2021/04/26 20:52:29;;;;;;;25.58;12.55;;;;;;;7.41;38.53;99044.80;263395;1099;115275;-70
2021/04/26 20:57:35;;;;;;;30.40;13.83;;;;;;;7.39;38.54;99044.00;263442;1103;114948;-70
2021/04/26 21:02:41;;;;;;;30.33;16.03;;;;;;;7.40;38.51;99043.06;263319;1100;115027;-66
2021/04/26 21:07:44;;;;;;;35.95;17.40;;;;;;;7.38;39.42;99048.45;263522;1103;114836;-69
2021/04/26 21:12:50;;;;;;;39.93;20.83;;;;;;;7.35;38.75;99049.44;263484;1099;114782;-70
2021/04/26 21:17:53;;;;;;;41.53;18.85;;;;;;;7.35;38.97;99052.09;263404;1104;114672;-69
2021/04/26 21:22:59;;;;;;;38.95;19.25;;;;;;;7.35;39.02;99054.73;263415;1099;114916;-67
2021/04/26 21:28:02;;;;;;;40.90;19.05;;;;;;;7.35;38.79;99059.17;263505;1103;115156;-67
2021/04/26 21:33:05;;;;;;;40.33;19.78;;;;;;;7.37;39.21;99059.97;263431;1099;115250;-68
2021/04/26 21:38:09;;;;;;;43.13;20.73;;;;;;;7.33;39.22;99053.94;263420;1103;115207;-69
2021/04/26 21:43:12;;;;;;;44.15;21.77;;;;;;;7.31;39.16;99058.47;263411;1099;114878;-71
2021/04/26 21:48:16;;;;;;;41.35;19.18;;;;;;;7.27;39.13;99066.65;263248;1104;114878;-70
2021/04/26 21:53:30;;;;;;;39.88;20.60;;;;;;;7.24;39.88;99062.34;263460;1101;114951;-68
2021/04/26 21:58:38;;;;;;;37.83;18.98;;;;;;;7.18;38.99;99059.99;263456;1103;114647;-70
2021/04/26 22:03:42;;;;;;;37.80;19.55;;;;;;;7.16;39.26;99061.84;263437;1099;114962;-69
2021/04/26 22:08:54;;;;;;;40.13;19.15;;;;;;;7.10;39.94;99064.80;263396;1103;114904;-68
2021/04/26 22:13:58;;;;;;;43.07;19.40;;;;;;;7.06;40.19;99071.14;263444;1099;114749;-69
2021/04/26 22:19:03;;;;;;;;;;;;;;;7.04;40.81;99067.73;263510;1104;114929;-68
2021/04/26 22:24:06;;;;;;;41.08;18.95;;;;;;;7.01;41.15;99059.94;263505;1099;104507;-66
2021/04/26 22:29:11;;;;;;;43.40;20.73;;;;;;;6.98;41.52;99062.72;263330;1102;114590;-68
2021/04/26 22:34:14;;;;;;;40.70;19.90;;;;;;;6.91;41.90;99061.30;263418;1099;114871;-68
2021/04/26 22:39:17;;;;;;;43.35;19.83;;;;;;;6.84;42.40;99060.72;263414;1103;115404;-66
2021/04/26 22:44:19;;;;;;;37.93;20.45;;;;;;;6.80;43.06;99046.79;263446;1099;114862;-65
2021/04/26 22:49:23;;;;;;;37.23;19.93;;;;;;;6.75;43.16;99051.41;263460;1104;114797;-64
2021/04/26 22:54:26;;;;;;;43.68;20.55;;;;;;;6.70;43.32;99064.01;263436;1099;114568;-65
2021/04/26 22:59:31;;;;;;;45.95;22.53;;;;;;;6.64;43.72;99056.35;263445;1104;114577;-66
2021/04/26 23:04:34;;;;;;;46.78;22.38;;;;;;;6.67;43.86;99052.72;263443;1099;114702;-66
2021/04/26 23:09:37;;;;;;;50.05;24.03;;;;;;;6.64;43.77;99049.27;263314;1104;114597;-66
2021/04/26 23:14:41;;;;;;;47.15;23.48;;;;;;;6.55;43.77;99041.75;263493;1099;114816;-64
2021/04/26 23:19:54;;;;;;;53.05;26.05;;;;;;;6.49;43.65;99035.88;263512;1101;114690;-68
2021/04/26 23:25:18;;;;;;;57.70;25.85;;;;;;;6.36;44.33;99046.17;263439;1099;115578;-67
2021/04/26 23:30:30;;;;;;;49.95;25.80;;;;;;;6.18;44.34;99041.69;263398;1104;114913;-67
2021/04/26 23:35:33;;;;;;;55.15;27.28;;;;;;;6.05;44.97;99044.03;263266;1101;114824;-68